North Platte, Nebraska
Current Conditions -  °F | °C
As of 2:53 AM on Monday 22 Dec 2014 (Local Time) from KLBF Reporting Station
Broken Clouds Broken Clouds  
Wind Chill: 22°   Ceiling: 6000
Heat Index: 28°   Visibility: 10mi
Dew Point: 26°   Wind: 6mph
Humidity: 92%   Direction: 300°WNW
Pressure: 29.53"   Gusts: NA
Location:  41.14°N, 100.76°W
Report Text: KLBF 220853Z AUTO 30005KT 10SM FEW050 BKN060 M02/M03 A2953 RMK AO2 SLP015 T10221033 53007 $
Loading
Personal Weather Stations






























Interactive Weather Map New forecast layout! Learn more

10-Day Weather Forecast

Advertisements
Track Severe Weather on mobile